Gallup Municipal Airport
KGUP : now visible

Airfield :











YOU CAN JOIN US ON...

 
LOGIN :

Register | Disclaimer

   EN    FR    IT 

 









Legend :    VFR   Marginal VFR   IFR   Intensive IFR   Very Intensive IFR
Visi :
Ceiling :
>= 8 km
>= 3000ft
5 to 8 km
1000 to 3000 ft
1500m to 5 km
500 to 1000 ft
800 to 1500m
200 to 500 ft
< 800m
< 200 ft
Symbols :   Thunderstorms  Fog  Heavy snow  Heavy precipitations  Wind > 20 kt






- Airport Elevation : 6472 ft
- IATA code : GUP


KGUP - Gallup Municipal

CURRENT METAR :
  • 172053Z AUTO 26019G29KT 10SM SCT042 SCT049 07/M02 A3009 RMK AO2 PK WND 26029/2048 SLP170 T00671022 55001

EXPIRED METARs :
  • 171953Z AUTO 25018G26KT 10SM SCT045 06/M02 A3009 RMK AO2 PK WND 25032/1900 SLP173 T00561022
  • 171853Z AUTO 25021G31KT 10SM FEW026 BKN036 BKN044 04/M02 A3010 RMK AO2 PK WND 26031/1849 SLP180 T00441022

TAF KGUP
Valid from the 17 at 18:00 until the 18 at 18:00 UTC


171743Z 1718/1818 24020G32KT P6SM FEW020 BKN035
TEMPO 1718/1719 BKN020
FM172100 25020G30KT P6SM SCT035
FM180100 VRB03KT P6SM FEW250



MET'MAP, your aeronautical weather chart ! - Copyright ORBIFLY December 2007 - Disclaimer

ORBIFLY MET'MAP TEAM :

Programming & Development : Alexandra Zaïnal
Concept & original design : Baudouin d'Aumeries
Assistance for programming : Marc-Olivier Méhu
Technical & hardware support : Manuel Goepfert

Contact : metmap@orbifly.com




SOURCES & CREDITS :

   NOAA       Earth
Advisory